KPBG/PBG METAR and TAF weather

Enter ICAO airport designator
Station Type Date Time Source
KPBG METAR 2022/06/27 07:53 UTC NOAA

KPBG 270753Z AUTO 15003KT 10SM SCT046 BKN070 OVC100 19/18 A2977 RMK AO2 RAB07E21 SLP078 P0000 T01940183


Station Type Date Time Source
KPBG Decoded METAR 2022/06/27 07:53 UTC NOAA

PLATTSBURGH INTERNATIONAL AIRPORT, NY, United States (KPBG) 44-39N 073-28W
Jun 27, 2022 - 03:53 AM EDT / 2022.06.27 0753 UTC
Wind: from the SSE (150 degrees) at 3 MPH (3 KT):0
Visibility: 10 mile(s):0
Sky conditions: overcast
Precipitation last hour: A trace
Temperature: 66.9 F (19.4 C)
Dew Point: 64.9 F (18.3 C)
Relative Humidity: 93%
Pressure (altimeter): 29.77 in. Hg (1008 hPa)
ob: KPBG 270753Z AUTO 15003KT 10SM SCT046 BKN070 OVC100 19/18 A2977 RMK AO2 RAB07E21 SLP078 P0000 T01940183
cycle: 8

Station Type Date Time Source
KPBG TAF 2022/06/27 06:30 UTC NOAA

TAF KPBG 270527Z 2706/2806 16008KT P6SM VCSH OVC070
TEMPO 2706/2711 4SM SHRA BR OVC028
FM271200 21010KT 6SM -SHRA BR OVC025
FM271500 26007KT P6SM BKN180
FM280100 30005KT P6SM BKN035

Example: see airport list